Time;durP1;ratioP1;P1;durP2;ratioP2;P2;SDS_P1;SDS_P2;PMS_P1;PMS_P2;Temp;Humidity;BMP_temperature;BMP_pressure;BME280_temperature;BME280_humidity;BME280_pressure;Samples;Min_cycle;Max_cycle;Signal;HPM_P1;HPM_P2
2021/12/03 00:02:21;;;;;;;9.05;2.28;;;3.00;99.90;;;;;;5092316;28;20043;-72
2021/12/03 00:04:47;;;;;;;7.07;1.80;;;3.00;99.90;;;;;;5092677;28;20036;-72
2021/12/03 00:07:13;;;;;;;5.40;2.13;;;3.00;99.90;;;;;;5092742;28;20036;-73
2021/12/03 00:09:39;;;;;;;7.65;2.00;;;3.00;99.90;;;;;;5093812;28;20367;-72
2021/12/03 00:12:06;;;;;;;7.50;1.83;;;3.00;99.90;;;;;;5093691;28;20444;-72
2021/12/03 00:14:34;;;;;;;6.93;2.17;;;3.00;99.90;;;;;;5092554;28;20040;-72
2021/12/03 00:17:00;;;;;;;4.75;2.10;;;3.00;99.90;;;;;;5093603;28;20032;-73
2021/12/03 00:19:26;;;;;;;7.80;2.00;;;3.00;99.90;;;;;;5092531;28;20038;-74
2021/12/03 00:21:52;;;;;;;9.52;2.50;;;2.90;99.90;;;;;;5093058;28;20021;-72
2021/12/03 00:24:18;;;;;;;6.28;2.42;;;2.90;99.90;;;;;;5093457;28;20505;-74
2021/12/03 00:26:43;;;;;;;7.55;2.30;;;2.90;99.90;;;;;;5092558;28;20020;-71
2021/12/03 00:29:09;;;;;;;11.00;2.60;;;2.90;99.90;;;;;;5093108;28;20032;-72
2021/12/03 00:31:36;;;;;;;6.97;2.67;;;2.90;99.90;;;;;;5092878;28;20024;-73
2021/12/03 00:34:01;;;;;;;9.52;3.22;;;3.00;99.90;;;;;;5092641;28;20051;-72
2021/12/03 00:36:28;;;;;;;7.40;2.70;;;3.00;99.90;;;;;;5092535;28;20043;-73
2021/12/03 00:38:58;;;;;;;8.60;2.55;;;2.90;99.90;;;;;;5092404;28;20024;-73
2021/12/03 00:41:25;;;;;;;4.70;2.17;;;2.90;99.90;;;;;;5093435;28;20028;-74
2021/12/03 00:43:52;;;;;;;9.98;3.05;;;3.00;99.90;;;;;;5092352;28;20471;-71
2021/12/03 00:46:19;;;;;;;4.97;2.33;;;3.00;99.90;;;;;;5092914;28;20051;-74
2021/12/03 00:48:48;;;;;;;6.38;2.47;;;3.00;99.90;;;;;;5092184;28;20109;-72
2021/12/03 00:51:15;;;;;;;8.90;2.88;;;3.10;99.90;;;;;;5092586;28;20043;-74
2021/12/03 00:53:42;;;;;;;11.10;3.30;;;3.10;99.90;;;;;;5093309;28;20066;-74
2021/12/03 00:56:08;;;;;;;5.68;2.88;;;3.10;99.90;;;;;;5092413;28;20039;-70
2021/12/03 00:58:34;;;;;;;10.02;3.03;;;3.10;99.90;;;;;;5092645;28;20030;-72
2021/12/03 01:01:00;;;;;;;9.30;2.70;;;3.20;99.90;;;;;;5091139;28;20040;-73
2021/12/03 01:03:26;;;;;;;11.30;2.78;;;3.20;99.90;;;;;;5093033;28;20048;-72
2021/12/03 01:05:52;;;;;;;11.20;2.60;;;3.20;99.90;;;;;;5092089;28;20028;-73
2021/12/03 01:08:17;;;;;;;8.52;2.55;;;3.20;99.90;;;;;;5093543;28;20028;-75
2021/12/03 01:10:43;;;;;;;5.75;2.22;;;3.30;99.90;;;;;;5092306;28;20056;-74
2021/12/03 01:13:09;;;;;;;7.90;2.65;;;3.30;99.90;;;;;;5092698;28;20061;-73
2021/12/03 01:15:37;;;;;;;13.35;2.55;;;3.30;99.90;;;;;;5090779;28;20021;-71
2021/12/03 01:18:05;;;;;;;10.65;2.95;;;3.30;99.90;;;;;;5092955;28;20475;-72
2021/12/03 01:20:32;;;;;;;10.55;3.10;;;3.30;99.90;;;;;;5091351;28;20535;-73
2021/12/03 01:22:59;;;;;;;6.75;2.00;;;3.30;99.90;;;;;;5092838;28;20070;-73
2021/12/03 01:25:26;;;;;;;12.30;2.65;;;3.30;99.90;;;;;;5095565;28;20114;-73
2021/12/03 01:27:53;;;;;;;7.10;2.35;;;3.40;99.90;;;;;;5096049;28;20365;-74
2021/12/03 01:30:23;;;;;;;9.32;2.90;;;3.40;99.90;;;;;;5094757;28;20036;-71
2021/12/03 01:32:49;;;;;;;6.38;2.33;;;3.40;99.90;;;;;;5095005;28;20119;-72
2021/12/03 01:35:16;;;;;;;7.55;2.55;;;3.40;99.90;;;;;;5095656;28;20032;-72
2021/12/03 01:37:42;;;;;;;6.70;2.35;;;3.40;99.90;;;;;;5096737;28;20157;-71
2021/12/03 01:40:12;;;;;;;9.38;2.58;;;3.40;99.90;;;;;;5096192;28;20039;-73
2021/12/03 01:42:38;;;;;;;6.45;2.25;;;3.40;99.90;;;;;;5094593;28;20510;-73
2021/12/03 01:45:07;;;;;;;13.07;2.67;;;3.40;99.90;;;;;;5095399;28;20521;-74
2021/12/03 01:47:32;;;;;;;13.10;3.38;;;3.50;99.90;;;;;;5096631;28;20027;-73
2021/12/03 01:49:58;;;;;;;11.00;2.28;;;3.50;99.90;;;;;;5095524;28;20032;-73
2021/12/03 01:52:23;;;;;;;14.05;2.65;;;3.50;99.90;;;;;;5095944;28;20036;-74
2021/12/03 01:54:49;;;;;;;6.90;2.00;;;3.50;99.90;;;;;;5095474;28;20391;-72
2021/12/03 01:57:16;;;;;;;8.60;2.13;;;3.50;99.90;;;;;;5077542;28;20024;-73
2021/12/03 01:59:42;;;;;;;10.55;2.97;;;3.50;99.90;;;;;;5095718;28;20055;-71
2021/12/03 02:02:09;;;;;;;7.18;2.40;;;3.50;99.90;;;;;;5077446;28;20499;-74
2021/12/03 02:04:35;;;;;;;8.77;2.35;;;3.60;99.90;;;;;;5095015;28;20475;-72
2021/12/03 02:07:00;;;;;;;9.00;2.67;;;3.50;99.90;;;;;;5095948;28;20032;-73
2021/12/03 02:09:26;;;;;;;15.40;4.00;;;3.60;99.90;;;;;;5096055;28;20435;-74
2021/12/03 02:11:52;;;;;;;8.93;2.50;;;3.60;99.90;;;;;;5096029;28;20459;-73
2021/12/03 02:14:17;;;;;;;7.93;2.50;;;3.60;99.90;;;;;;5076983;28;20090;-75
2021/12/03 02:16:45;;;;;;;9.27;3.40;;;3.50;99.90;;;;;;5093530;28;20035;-73
2021/12/03 02:19:12;;;;;;;7.75;2.92;;;3.60;99.90;;;;;;5095955;28;20100;-74
2021/12/03 02:21:37;;;;;;;7.63;2.33;;;3.60;99.90;;;;;;5095216;28;20236;-72
2021/12/03 02:24:04;;;;;;;10.68;2.38;;;3.60;99.90;;;;;;5095453;28;20384;-76
2021/12/03 02:26:30;;;;;;;8.82;2.35;;;3.60;99.90;;;;;;5094726;28;20032;-73
2021/12/03 02:28:55;;;;;;;12.95;2.80;;;3.60;99.90;;;;;;5095213;28;20070;-70
2021/12/03 02:31:25;;;;;;;9.73;2.17;;;3.70;99.90;;;;;;5095450;28;20024;-71
2021/12/03 02:33:52;;;;;;;12.10;2.50;;;3.70;99.90;;;;;;5076060;28;20040;-72
2021/12/03 02:36:19;;;;;;;10.23;2.55;;;3.70;99.90;;;;;;5092879;28;20040;-71
2021/12/03 02:38:45;;;;;;;9.45;2.80;;;3.80;99.90;;;;;;5094712;28;20020;-73
2021/12/03 02:41:12;;;;;;;15.38;3.25;;;3.80;99.90;;;;;;5094551;28;20158;-72
2021/12/03 02:43:38;;;;;;;10.50;3.33;;;3.90;99.90;;;;;;5094127;28;20514;-74
2021/12/03 02:46:07;;;;;;;13.88;2.80;;;3.90;99.90;;;;;;5094259;28;20028;-70
2021/12/03 02:48:35;;;;;;;16.17;2.90;;;3.90;99.90;;;;;;5095118;28;20031;-74
2021/12/03 02:51:02;;;;;;;8.55;2.90;;;3.90;99.90;;;;;;5094422;28;20032;-73
2021/12/03 02:53:28;;;;;;;8.68;2.53;;;3.90;99.90;;;;;;5094855;28;20483;-74
2021/12/03 02:55:53;;;;;;;8.68;2.30;;;3.90;99.90;;;;;;5094394;28;20109;-72
2021/12/03 02:58:20;;;;;;;9.65;2.88;;;3.80;99.90;;;;;;5094148;28;20464;-73
2021/12/03 03:00:48;;;;;;;11.18;2.70;;;3.80;99.90;;;;;;5092740;28;20479;-74
2021/12/03 03:03:16;;;;;;;8.32;2.33;;;3.80;99.90;;;;;;5093739;28;20470;-73
2021/12/03 03:05:56;;;;;;;12.27;2.92;;;3.80;99.90;;;;;;5095047;28;20115;-72
2021/12/03 03:08:22;;;;;;;10.57;2.10;;;3.80;99.90;;;;;;5093300;28;20032;-74
2021/12/03 03:10:48;;;;;;;10.60;2.40;;;3.80;99.90;;;;;;5096413;28;20572;-73
2021/12/03 03:13:14;;;;;;;3.78;2.58;;;3.80;99.90;;;;;;5099173;28;20485;-70
2021/12/03 03:15:39;;;;;;;16.35;2.75;;;3.90;99.90;;;;;;5101139;28;20106;-71
2021/12/03 03:18:17;;;;;;;13.05;2.28;;;3.90;99.90;;;;;;5094349;28;20103;-72
2021/12/03 03:20:45;;;;;;;11.30;2.50;;;3.90;99.90;;;;;;5094676;28;20085;-74
2021/12/03 03:23:12;;;;;;;6.90;2.08;;;4.00;99.90;;;;;;5094263;28;20091;-74
2021/12/03 03:25:42;;;;;;;10.63;2.33;;;4.10;99.90;;;;;;5094518;28;20024;-72
2021/12/03 03:28:09;;;;;;;12.70;2.20;;;4.20;99.90;;;;;;5094379;28;20236;-73
2021/12/03 03:30:40;;;;;;;5.03;1.75;;;4.20;99.90;;;;;;5094549;28;20020;-74
2021/12/03 03:33:05;;;;;;;8.55;2.33;;;4.20;99.90;;;;;;5094585;28;20047;-72
2021/12/03 03:35:32;;;;;;;5.05;1.65;;;4.20;99.90;;;;;;5093896;28;20391;-74
2021/12/03 03:37:58;;;;;;;8.38;1.60;;;4.20;99.90;;;;;;5094342;28;20032;-72
2021/12/03 03:40:24;;;;;;;9.55;1.58;;;4.10;99.90;;;;;;5094069;28;20054;-70
2021/12/03 03:42:50;;;;;;;15.27;2.30;;;4.20;99.90;;;;;;5094085;28;20032;-74
2021/12/03 03:45:18;;;;;;;10.43;2.00;;;4.20;99.90;;;;;;5094239;28;20044;-71
2021/12/03 03:47:45;;;;;;;12.43;2.17;;;4.20;99.90;;;;;;5093762;28;20055;-73
2021/12/03 03:50:12;;;;;;;13.90;2.63;;;4.30;99.90;;;;;;5093913;28;20020;-72
2021/12/03 03:52:39;;;;;;;8.55;2.28;;;4.20;99.90;;;;;;5094173;28;20039;-74
2021/12/03 03:55:07;;;;;;;12.98;2.50;;;4.30;99.90;;;;;;5094077;28;20127;-70
2021/12/03 03:57:33;;;;;;;4.70;1.73;;;4.30;99.90;;;;;;5094534;28;20533;-72
2021/12/03 03:59:59;;;;;;;9.75;2.75;;;4.30;99.90;;;;;;5094023;28;20024;-72
2021/12/03 04:02:25;;;;;;;8.82;2.33;;;4.40;99.90;;;;;;5093388;28;20429;-73
2021/12/03 04:04:50;;;;;;;8.05;2.78;;;4.40;99.90;;;;;;5093983;28;20077;-72
2021/12/03 04:07:16;;;;;;;11.40;2.92;;;4.40;99.90;;;;;;5093935;28;20059;-72
2021/12/03 04:09:42;;;;;;;8.90;1.98;;;4.50;99.90;;;;;;5093573;28;20039;-71
2021/12/03 04:12:08;;;;;;;8.82;1.90;;;4.50;99.90;;;;;;5093542;28;20027;-72
2021/12/03 04:14:33;;;;;;;10.80;2.80;;;4.50;99.90;;;;;;5093760;28;20040;-72
2021/12/03 04:17:00;;;;;;;9.60;2.35;;;4.60;99.90;;;;;;5093395;28;20054;-74
2021/12/03 04:19:25;;;;;;;8.75;2.05;;;4.60;99.90;;;;;;5093571;28;20024;-73
2021/12/03 04:21:51;;;;;;;9.25;2.70;;;4.70;99.90;;;;;;5093615;28;20028;-71
2021/12/03 04:24:16;;;;;;;9.40;2.45;;;4.70;99.90;;;;;;5092365;28;20095;-71
2021/12/03 04:26:42;;;;;;;9.25;2.20;;;4.80;99.90;;;;;;5093530;28;20028;-74
2021/12/03 04:29:08;;;;;;;6.53;2.25;;;4.80;99.90;;;;;;5093403;28;20035;-72
2021/12/03 04:31:33;;;;;;;8.85;2.15;;;4.90;99.90;;;;;;5075301;28;20027;-70
2021/12/03 04:33:59;;;;;;;11.68;2.22;;;4.90;99.90;;;;;;5092867;28;20043;-74
2021/12/03 04:36:25;;;;;;;17.02;2.50;;;5.00;99.90;;;;;;5075326;28;20053;-73
2021/12/03 04:38:51;;;;;;;10.27;3.17;;;5.10;99.90;;;;;;5093221;28;20464;-72
2021/12/03 04:41:16;;;;;;;8.90;1.77;;;5.10;99.90;;;;;;5093715;28;20028;-71
2021/12/03 04:43:42;;;;;;;12.45;2.15;;;5.20;99.90;;;;;;5093108;28;20039;-74
2021/12/03 04:46:08;;;;;;;11.40;1.83;;;5.20;99.90;;;;;;5093634;28;20081;-72
2021/12/03 04:48:33;;;;;;;4.95;1.65;;;5.20;99.90;;;;;;5092956;28;20107;-74
2021/12/03 04:50:59;;;;;;;10.40;1.90;;;5.30;99.90;;;;;;5093279;28;20027;-72
2021/12/03 04:53:25;;;;;;;12.00;2.17;;;5.30;99.90;;;;;;5091990;28;20040;-74
2021/12/03 04:55:51;;;;;;;12.18;1.90;;;5.40;99.90;;;;;;5093340;28;20517;-71
2021/12/03 04:58:17;;;;;;;11.45;1.67;;;5.40;99.90;;;;;;5093235;28;20024;-70
2021/12/03 05:00:49;;;;;;;9.35;2.00;;;5.40;99.90;;;;;;5078274;28;20020;-72
2021/12/03 05:03:15;;;;;;;11.55;2.40;;;5.40;99.90;;;;;;5097417;28;20028;-71
2021/12/03 05:05:53;;;;;;;9.80;2.05;;;5.40;99.90;;;;;;5097553;28;20039;-73
2021/12/03 05:08:19;;;;;;;1.98;1.25;;;5.40;99.90;;;;;;5097337;28;20118;-73
2021/12/03 05:10:45;;;;;;;5.28;1.58;;;5.50;99.90;;;;;;5097180;28;20032;-73
2021/12/03 05:13:16;;;;;;;9.48;1.50;;;5.40;99.90;;;;;;5097029;28;20036;-74
2021/12/03 05:15:44;;;;;;;4.53;1.08;;;5.50;99.90;;;;;;5097129;28;20028;-73
2021/12/03 05:18:13;;;;;;;9.70;1.45;;;5.60;99.90;;;;;;5097016;28;20515;-74
2021/12/03 05:20:39;;;;;;;9.63;1.60;;;5.70;99.90;;;;;;5096842;28;20051;-70
2021/12/03 05:23:05;;;;;;;8.52;2.33;;;5.80;99.90;;;;;;5095764;28;20028;-72
2021/12/03 05:25:31;;;;;;;7.40;1.45;;;5.80;99.90;;;;;;5096888;28;20024;-73
2021/12/03 05:27:58;;;;;;;8.95;1.52;;;5.90;99.90;;;;;;5096697;28;20103;-73
2021/12/03 05:30:24;;;;;;;7.00;1.30;;;6.00;99.90;;;;;;5096774;28;20035;-74
2021/12/03 05:32:49;;;;;;;5.18;1.20;;;6.00;99.90;;;;;;5096540;28;20016;-73
2021/12/03 05:35:16;;;;;;;12.60;1.50;;;6.10;99.90;;;;;;5096808;28;20467;-70
2021/12/03 05:37:42;;;;;;;6.20;1.17;;;6.20;99.90;;;;;;5078425;28;20422;-73
2021/12/03 05:40:09;;;;;;;5.63;1.05;;;6.20;99.90;;;;;;5095537;28;20024;-71
2021/12/03 05:42:36;;;;;;;8.55;1.58;;;6.20;99.90;;;;;;5096106;28;20379;-72
2021/12/03 05:45:03;;;;;;;12.63;1.50;;;6.20;99.90;;;;;;5096575;28;20024;-72
2021/12/03 05:47:29;;;;;;;6.07;1.10;;;6.20;99.90;;;;;;5096738;28;20032;-71
2021/12/03 05:49:54;;;;;;;7.43;1.50;;;6.20;99.90;;;;;;5096706;28;20026;-72
2021/12/03 05:52:20;;;;;;;6.05;1.10;;;6.20;99.90;;;;;;5078322;28;20034;-71
2021/12/03 05:54:46;;;;;;;9.63;1.45;;;6.30;99.90;;;;;;5096509;28;20528;-73
2021/12/03 05:57:12;;;;;;;5.40;1.10;;;6.30;99.90;;;;;;5077998;28;20429;-71
2021/12/03 05:59:37;;;;;;;12.90;1.75;;;6.30;99.90;;;;;;5096848;28;20110;-73
2021/12/03 06:02:03;;;;;;;6.30;1.80;;;6.30;99.90;;;;;;5096268;28;20078;-73
2021/12/03 06:04:29;;;;;;;5.68;1.10;;;6.40;99.90;;;;;;5096347;28;20035;-71
2021/12/03 06:06:56;;;;;;;6.70;1.30;;;6.40;99.90;;;;;;5095989;28;20024;-70
2021/12/03 06:09:22;;;;;;;5.43;1.38;;;6.40;99.90;;;;;;5096307;28;20029;-71
2021/12/03 06:11:48;;;;;;;8.88;2.25;;;6.40;99.90;;;;;;5095700;28;20024;-72
2021/12/03 06:14:13;;;;;;;5.03;1.15;;;6.40;99.90;;;;;;5096250;28;20035;-73
2021/12/03 06:16:39;;;;;;;5.88;1.00;;;6.40;99.90;;;;;;5096007;28;20032;-73
2021/12/03 06:19:05;;;;;;;5.88;1.05;;;6.40;99.90;;;;;;5095749;28;20032;-71
2021/12/03 06:21:30;;;;;;;4.18;1.23;;;6.40;99.90;;;;;;5095506;28;20108;-71
2021/12/03 06:23:56;;;;;;;9.25;1.42;;;6.40;99.90;;;;;;5096059;28;20059;-74
2021/12/03 06:26:22;;;;;;;11.48;1.30;;;6.40;99.90;;;;;;5095651;28;20035;-73
2021/12/03 06:28:48;;;;;;;9.05;1.45;;;6.40;99.90;;;;;;5096042;28;20058;-71
2021/12/03 06:31:13;;;;;;;7.18;2.30;;;6.50;99.90;;;;;;5095725;28;20031;-71
2021/12/03 06:33:39;;;;;;;8.00;1.45;;;6.50;99.90;;;;;;5095599;28;20089;-71
2021/12/03 06:36:05;;;;;;;10.43;2.85;;;6.60;99.90;;;;;;5095756;28;20028;-71
2021/12/03 06:38:31;;;;;;;8.13;1.40;;;6.60;99.90;;;;;;5095782;28;20023;-70
2021/12/03 06:40:57;;;;;;;9.48;1.40;;;6.70;99.90;;;;;;5077041;28;20384;-70
2021/12/03 06:43:23;;;;;;;10.52;1.48;;;6.60;99.90;;;;;;5093978;28;20036;-71
2021/12/03 06:45:49;;;;;;;5.68;1.30;;;6.70;99.90;;;;;;5095813;28;20028;-71
2021/12/03 06:48:16;;;;;;;6.82;1.25;;;6.70;99.90;;;;;;5095332;28;20033;-71
2021/12/03 06:50:43;;;;;;;7.97;1.90;;;6.70;99.90;;;;;;5095244;28;20024;-70
2021/12/03 06:53:15;;;;;;;7.72;2.10;;;6.70;99.90;;;;;;5095281;28;20044;-71
2021/12/03 06:55:51;;;;;;;6.78;1.45;;;6.70;99.90;;;;;;5077190;28;20379;-71
2021/12/03 06:58:19;;;;;;;11.70;1.77;;;6.70;99.90;;;;;;5095306;28;20028;-71
2021/12/03 07:00:47;;;;;;;9.10;1.52;;;6.70;99.90;;;;;;5095071;28;20460;-71
2021/12/03 07:03:13;;;;;;;9.02;1.45;;;6.80;99.90;;;;;;5095249;28;20034;-71
2021/12/03 07:05:39;;;;;;;8.68;1.85;;;6.80;99.90;;;;;;5095133;28;20056;-70
2021/12/03 07:08:06;;;;;;;9.32;1.45;;;6.70;99.90;;;;;;5076693;28;20468;-73
2021/12/03 07:10:32;;;;;;;7.75;1.80;;;6.80;99.90;;;;;;5094945;28;20028;-72
2021/12/03 07:12:58;;;;;;;7.43;2.45;;;6.80;99.90;;;;;;5094867;28;20081;-74
2021/12/03 07:15:24;;;;;;;7.20;1.33;;;6.80;99.90;;;;;;5094624;28;20563;-73
2021/12/03 07:17:51;;;;;;;8.88;1.70;;;6.80;99.90;;;;;;5094467;28;20024;-71
2021/12/03 07:20:22;;;;;;;7.13;1.23;;;6.70;99.90;;;;;;5094889;28;20402;-73
2021/12/03 07:22:49;;;;;;;15.60;2.05;;;6.70;99.90;;;;;;5093867;28;20051;-71
2021/12/03 07:25:15;;;;;;;9.52;2.00;;;6.80;99.90;;;;;;5094898;28;20024;-74
2021/12/03 07:27:41;;;;;;;8.43;1.50;;;6.80;99.90;;;;;;5094927;28;20131;-74
2021/12/03 07:30:09;;;;;;;6.18;1.77;;;6.80;99.90;;;;;;5094835;28;20467;-73
2021/12/03 07:32:35;;;;;;;7.15;1.75;;;6.80;99.90;;;;;;5094336;28;20031;-71
2021/12/03 07:35:01;;;;;;;12.57;1.55;;;6.80;99.90;;;;;;5094292;28;20092;-71
2021/12/03 07:37:27;;;;;;;8.90;1.67;;;6.80;99.90;;;;;;5094567;28;20031;-70
2021/12/03 07:39:52;;;;;;;10.05;2.17;;;6.80;99.90;;;;;;5094357;28;20024;-70
2021/12/03 07:42:18;;;;;;;6.20;1.73;;;6.80;99.90;;;;;;5094396;28;20028;-72
2021/12/03 07:44:44;;;;;;;5.72;1.60;;;6.80;99.90;;;;;;5094272;28;20054;-73
2021/12/03 07:47:10;;;;;;;13.63;1.80;;;6.80;99.90;;;;;;5093466;28;20020;-71
2021/12/03 07:49:38;;;;;;;6.68;1.38;;;6.80;99.90;;;;;;5093647;28;20513;-72
2021/12/03 07:52:04;;;;;;;6.47;1.50;;;6.70;99.90;;;;;;5094273;28;20531;-72
2021/12/03 07:54:30;;;;;;;6.78;1.50;;;6.70;99.90;;;;;;5089133;28;20035;-71
2021/12/03 07:56:55;;;;;;;6.55;1.48;;;6.70;99.90;;;;;;5092131;28;20020;-72
2021/12/03 07:59:21;;;;;;;8.10;1.35;;;6.80;99.90;;;;;;5092683;28;20118;-73
2021/12/03 08:01:47;;;;;;;6.60;1.23;;;6.80;99.90;;;;;;5074195;28;20052;-72
2021/12/03 08:04:14;;;;;;;11.35;2.03;;;6.80;99.90;;;;;;5093138;28;20024;-71
2021/12/03 08:06:40;;;;;;;6.78;1.58;;;6.80;99.90;;;;;;5093288;28;20065;-72
2021/12/03 08:09:10;;;;;;;9.80;1.60;;;6.80;99.90;;;;;;5092805;28;20024;-71
2021/12/03 08:11:39;;;;;;;8.93;1.30;;;6.90;99.90;;;;;;5093886;28;20024;-71
2021/12/03 08:14:05;;;;;;;7.10;1.45;;;6.90;99.90;;;;;;5098756;28;20388;-70
2021/12/03 08:16:31;;;;;;;13.23;1.30;;;6.90;99.90;;;;;;5092446;28;20069;-72
2021/12/03 08:18:56;;;;;;;9.82;1.30;;;6.90;99.90;;;;;;5096042;28;20024;-73
2021/12/03 08:21:22;;;;;;;11.10;1.52;;;6.90;99.90;;;;;;5091994;28;20028;-74
2021/12/03 08:23:48;;;;;;;9.27;1.58;;;6.90;99.90;;;;;;5091796;28;20059;-72
2021/12/03 08:26:15;;;;;;;11.00;2.28;;;6.90;99.90;;;;;;5074229;28;20028;-73
2021/12/03 08:28:41;;;;;;;9.27;1.45;;;6.90;99.90;;;;;;5089872;28;20166;-72
2021/12/03 08:31:11;;;;;;;7.68;1.23;;;7.00;99.90;;;;;;5090706;28;20119;-72
2021/12/03 08:33:37;;;;;;;9.07;1.52;;;7.00;99.90;;;;;;5092228;28;20032;-71
2021/12/03 08:36:03;;;;;;;4.53;1.00;;;7.00;99.90;;;;;;5093305;28;20357;-72
2021/12/03 08:38:28;;;;;;;5.60;1.20;;;6.90;99.90;;;;;;5091528;28;20090;-74
2021/12/03 08:40:54;;;;;;;8.27;2.10;;;6.90;99.90;;;;;;5075318;28;20524;-71
2021/12/03 08:43:19;;;;;;;11.82;3.10;;;6.90;99.90;;;;;;5092871;28;20032;-72
2021/12/03 08:45:47;;;;;;;18.17;3.10;;;6.80;99.90;;;;;;5091610;28;20043;-71
2021/12/03 08:48:13;;;;;;;8.43;2.28;;;6.80;99.90;;;;;;5092650;28;20020;-70
2021/12/03 08:50:49;;;;;;;8.10;2.35;;;6.70;99.90;;;;;;5092635;28;20038;-71
2021/12/03 08:56:01;;;;;;;10.75;2.15;;;6.50;99.90;;;;;;5092181;28;20046;-73
2021/12/03 08:58:27;;;;;;;12.57;3.25;;;6.40;99.90;;;;;;5091095;28;20032;-72
2021/12/03 09:00:53;;;;;;;10.18;2.90;;;6.40;99.90;;;;;;5092296;28;20069;-71
2021/12/03 09:03:19;;;;;;;10.65;2.28;;;6.30;99.90;;;;;;5092570;28;20032;-72
2021/12/03 09:05:46;;;;;;;9.45;2.33;;;6.20;99.90;;;;;;5092469;28;20066;-71
2021/12/03 09:08:13;;;;;;;13.55;2.70;;;6.10;99.90;;;;;;5092797;28;20016;-73
2021/12/03 09:10:40;;;;;;;5.53;1.90;;;6.10;99.90;;;;;;5092596;28;20028;-72
2021/12/03 09:13:06;;;;;;;10.45;2.35;;;5.90;99.90;;;;;;5092782;28;20103;-74
2021/12/03 09:15:48;;;;;;;9.70;2.08;;;5.80;99.90;;;;;;5093515;28;20050;-71
2021/12/03 09:18:26;;;;;;;11.52;2.15;;;5.70;99.90;;;;;;5075425;28;20036;-72
2021/12/03 09:21:12;;;;;;;14.25;2.67;;;5.60;99.90;;;;;;5093010;28;20061;-74
2021/12/03 09:23:57;;;;;;;6.07;2.38;;;5.60;99.90;;;;;;5092875;28;20111;-72
2021/12/03 09:26:27;;;;;;;9.55;2.90;;;5.50;99.90;;;;;;5093172;28;20016;-72
2021/12/03 09:29:00;;;;;;;11.85;2.78;;;5.40;99.90;;;;;;5092635;28;20413;-74
2021/12/03 09:31:27;;;;;;;12.95;3.17;;;5.40;99.90;;;;;;5091934;28;20048;-71
2021/12/03 09:33:53;;;;;;;10.75;2.75;;;5.40;99.90;;;;;;5092519;28;20469;-70
2021/12/03 09:36:19;;;;;;;7.03;2.33;;;5.30;99.90;;;;;;5091936;28;20135;-72
2021/12/03 09:38:45;;;;;;;10.60;2.25;;;5.30;99.90;;;;;;5092365;28;20102;-71
2021/12/03 09:41:14;;;;;;;8.00;3.08;;;5.20;99.90;;;;;;5074984;28;20028;-72
2021/12/03 09:43:44;;;;;;;10.68;2.90;;;5.20;99.90;;;;;;5093212;28;20088;-71
2021/12/03 09:46:32;;;;;;;9.82;2.60;;;5.20;99.90;;;;;;5095276;28;20020;-71
2021/12/03 09:49:19;;;;;;;9.38;2.78;;;5.20;99.90;;;;;;5095966;28;20163;-71
2021/12/03 09:57:09;;;;;;;10.15;2.55;;;5.20;99.90;;;;;;5095325;28;20081;-72
2021/12/03 10:13:58;;;;;;;7.38;1.92;;;5.70;99.90;;;;;;5090573;28;20050;-71
2021/12/03 10:41:53;;;;;;;8.13;2.30;;;5.80;99.90;;;;;;5095155;28;20054;-71
2021/12/03 10:44:57;;;;;;;7.13;2.40;;;5.80;99.90;;;;;;5094821;28;20024;-71
2021/12/03 10:47:42;;;;;;;8.27;2.45;;;5.70;99.90;;;;;;5091965;28;20036;-72
2021/12/03 10:53:26;;;;;;;8.13;2.80;;;5.70;99.90;;;;;;5095145;28;20016;-72
2021/12/03 11:01:59;;;;;;;12.05;4.05;;;5.70;99.90;;;;;;5094351;28;20549;-72
2021/12/03 11:21:14;;;;;;;6.40;2.92;;;5.70;99.90;;;;;;5094591;28;20456;-71
2021/12/03 11:54:58;;;;;;;9.60;2.50;;;6.20;99.90;;;;;;5093346;28;20020;-71
2021/12/03 13:21:05;;;;;;;5.40;3.47;;;6.50;99.90;;;;;;5094556;28;20486;-71
2021/12/03 13:32:18;;;;;;;9.43;3.75;;;6.50;99.90;;;;;;5096635;28;20029;-71
2021/12/03 13:59:57;;;;;;;11.15;5.25;;;6.40;99.90;;;;;;5096153;28;20040;-71
2021/12/03 14:26:46;;;;;;;12.80;6.28;;;6.30;99.90;;;;;;5095746;28;20123;-71
2021/12/03 14:39:12;;;;;;;12.13;6.47;;;6.10;99.90;;;;;;5075367;28;20055;-71
2021/12/03 14:44:40;;;;;;;10.85;5.88;;;6.10;99.90;;;;;;5075167;28;20032;-73
2021/12/03 14:54:32;;;;;;;13.25;6.50;;;6.00;99.90;;;;;;5075007;28;20400;-71
2021/12/03 14:57:09;;;;;;;16.25;8.68;;;5.90;99.90;;;;;;5075141;28;20028;-71
2021/12/03 14:59:37;;;;;;;18.90;10.20;;;5.90;99.90;;;;;;5075080;28;20103;-70
2021/12/03 15:04:58;;;;;;;21.75;12.00;;;5.90;99.90;;;;;;5074980;28;20036;-71
2021/12/03 15:07:33;;;;;;;18.83;10.45;;;5.90;99.90;;;;;;5084771;28;20060;-71
2021/12/03 15:10:01;;;;;;;18.65;9.77;;;5.90;99.90;;;;;;5094668;28;20020;-72
2021/12/03 15:12:58;;;;;;;16.63;9.75;;;5.90;99.90;;;;;;5094627;28;20069;-71
2021/12/03 15:23:17;;;;;;;18.95;11.40;;;5.90;99.90;;;;;;5092543;28;20472;-71
2021/12/03 15:25:55;;;;;;;23.58;11.65;;;5.90;99.90;;;;;;5091601;28;20106;-72
2021/12/03 15:33:57;;;;;;;20.88;11.13;;;5.90;99.90;;;;;;5094199;28;20071;-71
2021/12/03 15:36:52;;;;;;;22.17;11.50;;;5.90;99.90;;;;;;5094048;28;20032;-72
2021/12/03 15:39:16;;;;;;;22.80;12.70;;;5.90;99.90;;;;;;5093811;28;20133;-71
2021/12/03 16:03:30;;;;;;;20.88;11.82;;;6.00;99.90;;;;;;5042900;28;20025;-71
2021/12/03 16:04:26;;;;;;;28.23;13.52;;;6.00;99.90;;;;;;5094155;28;20042;-71
2021/12/03 16:22:46;;;;;;;17.52;10.25;;;6.00;99.90;;;;;;5091879;28;20112;-72
2021/12/03 16:44:31;;;;;;;27.23;14.20;;;6.10;99.90;;;;;;5091411;28;20506;-71
2021/12/03 16:52:17;;;;;;;23.30;12.45;;;6.10;99.90;;;;;;5092451;28;20118;-73
2021/12/03 16:54:54;;;;;;;32.20;15.87;;;6.10;99.90;;;;;;5092978;28;20032;-70
2021/12/03 16:57:19;;;;;;;24.23;13.13;;;6.00;99.90;;;;;;5093666;28;20387;-73
2021/12/03 16:59:50;;;;;;;25.15;12.63;;;6.00;99.90;;;;;;5090196;28;20026;-73
2021/12/03 17:02:20;;;;;;;29.58;16.67;;;6.10;99.90;;;;;;5096848;28;20521;-73
2021/12/03 17:05:37;;;;;;;28.90;14.95;;;6.10;99.90;;;;;;5096780;28;20016;-74
2021/12/03 17:16:08;;;;;;;29.83;16.45;;;6.10;99.90;;;;;;5096927;28;20118;-71
2021/12/03 17:26:59;;;;;;;28.45;14.57;;;6.10;99.90;;;;;;5096347;28;20066;-71
2021/12/03 17:54:24;;;;;;;29.02;16.10;;;6.30;99.90;;;;;;5076053;28;20145;-71
2021/12/03 17:56:19;;;;;;;31.13;15.27;;;6.30;99.90;;;;;;5066079;28;20744;-71
2021/12/03 17:58:50;;;;;;;32.55;16.85;;;6.30;99.90;;;;;;5095449;28;20460;-71
2021/12/03 18:01:32;;;;;;;35.75;16.25;;;6.30;99.90;;;;;;5094753;28;20040;-71
2021/12/03 18:06:50;;;;;;;27.83;13.27;;;6.30;99.90;;;;;;5089829;28;20050;-73
2021/12/03 18:50:42;;;;;;;33.40;17.40;;;6.20;99.90;;;;;;5093398;28;20066;-71
2021/12/03 18:55:36;;;;;;;35.13;17.38;;;6.30;99.90;;;;;;5090972;28;20063;-72
2021/12/03 18:58:04;;;;;;;33.15;16.80;;;6.30;99.90;;;;;;5079513;28;20557;-71
2021/12/03 19:00:33;;;;;;;34.95;17.00;;;6.40;99.90;;;;;;5094612;28;20032;-71
2021/12/03 19:03:04;;;;;;;33.88;17.75;;;6.40;99.90;;;;;;5094100;28;20549;-72
2021/12/03 19:06:02;;;;;;;31.70;14.73;;;6.40;99.90;;;;;;5093993;28;20085;-71
2021/12/03 19:08:30;;;;;;;33.45;17.50;;;6.40;99.90;;;;;;5091632;28;20066;-71
2021/12/03 19:11:03;;;;;;;31.33;15.07;;;6.40;99.90;;;;;;5074647;28;20032;-71
2021/12/03 19:13:34;;;;;;;26.77;12.93;;;6.40;99.90;;;;;;5094730;28;20026;-71
2021/12/03 19:16:02;;;;;;;31.10;15.38;;;6.40;99.90;;;;;;5090654;28;20035;-72
2021/12/03 19:18:28;;;;;;;29.00;14.73;;;6.30;99.90;;;;;;5092055;28;20404;-71
2021/12/03 19:21:00;;;;;;;33.10;16.95;;;6.30;99.90;;;;;;5094126;28;20024;-73
2021/12/03 19:23:26;;;;;;;;;;;6.30;99.90;;;;;;5074373;28;20036;-72
2021/12/03 19:25:51;;;;;;;27.83;13.75;;;6.30;99.90;;;;;;5086700;28;19908;-72
2021/12/03 19:28:17;;;;;;;30.67;15.10;;;6.30;99.90;;;;;;5087112;28;20028;-72
2021/12/03 19:30:43;;;;;;;30.55;15.07;;;6.20;99.90;;;;;;5087794;28;20107;-74
2021/12/03 19:33:08;;;;;;;28.90;13.95;;;6.30;99.90;;;;;;5090824;28;20029;-74
2021/12/03 19:35:37;;;;;;;30.38;15.52;;;6.30;99.90;;;;;;5092215;28;20082;-74
2021/12/03 19:38:04;;;;;;;30.17;14.20;;;6.30;99.90;;;;;;5091716;28;20051;-73
2021/12/03 19:40:34;;;;;;;30.50;15.77;;;6.30;99.90;;;;;;5092531;28;20032;-73
2021/12/03 19:43:05;;;;;;;31.63;15.57;;;6.30;99.90;;;;;;5094222;28;20027;-73
2021/12/03 19:45:34;;;;;;;34.40;14.75;;;6.30;99.90;;;;;;5091775;28;20510;-72
2021/12/03 19:48:10;;;;;;;26.88;14.20;;;6.30;99.90;;;;;;5092914;28;20028;-72
2021/12/03 19:50:44;;;;;;;31.10;15.13;;;6.20;99.90;;;;;;5093103;28;20031;-73
2021/12/03 19:53:16;;;;;;;23.67;12.70;;;6.30;99.90;;;;;;5090176;28;20024;-72
2021/12/03 19:55:45;;;;;;;32.88;16.15;;;6.30;99.90;;;;;;5093945;28;20055;-72
2021/12/03 19:58:13;;;;;;;30.42;14.60;;;6.20;99.90;;;;;;5093422;28;20028;-73
2021/12/03 20:00:40;;;;;;;22.58;10.82;;;6.30;99.90;;;;;;5091223;28;20550;-72
2021/12/03 20:03:09;;;;;;;26.73;11.90;;;6.30;99.90;;;;;;5093815;28;20044;-70
2021/12/03 20:05:35;;;;;;;28.63;13.43;;;6.30;99.90;;;;;;5093099;28;20039;-70
2021/12/03 20:08:04;;;;;;;28.40;13.95;;;6.30;99.90;;;;;;5093504;28;20078;-72